ATIS電碼解讀

部分的解讀我已經參考過知識家其他高手的解答

http://tw.knowledge.yahoo.com/question/question?qi...

不過仍有些問題... 需要各位網友的解答~

例:

SPECI RCTP 281436Z 11006KT 5000 『BR』 FEW010 『SCT』060 BKN130 26/23 Q1009『(A2980)(L)=』

上面電碼有標『』 都是需要各位翻譯的地方...

2. 另外,FEW是疏雲 BKN是裂雲...請教還有其他用法嗎?

希望各位網友能夠幫忙,並且希望能夠將其他相關用法列出...麻煩各位了

用接收器聽是可以聽的出來...不過一但變成電碼 小弟就掛在那邊了....

5 Answers

Rating
  • 9 years ago
    Favorite Answer

    SPECI = 發布的時候取代 METAR的機場天氣報告

    RCTP = 台北

    281436 = 當月的28日1436時間發布

    Z = 格林威治時間

    11006KT = 110度6海浬的風

    5000 = 能見度 5000公尺BR = 靄(薄霧 - 能見度1000公尺以上,5000公尺以下)

    FEW 010

    SCT 060

    BKN 130 = 把天空分成8分,0分有雲叫SKC,1-2叫FEW,3-4叫SCT,5-7叫BKN,8叫OVC(SKC = SKY CLEAR; SCT = SCATTERED; BKN = BROKEN; OVC = OVERCAST)(後面的數字X100就是雲的高度,eg 060 = 6000英呎)

    26/23 = 溫度26度,露點23度

    Q1009 = 大氣壓力1009汞柱毫米(英式)

    A2980 = 大氣壓力29.80水銀英吋(美式)

    L = 天氣代碼,從A排到Z再重頭

    介紹你一個不錯的網站,可以把絕大多數的天氣資料翻譯出來,但是後面代表的意思還是得靠自己,加油~

    http://www.skystef.be/metar-decoder.htm

  • 9 years ago

    非常感謝各位高手的幫助,小弟真的受益良多,不過在諸多專業的回答下...讓小弟不知該選哪為高手為最佳解答...我想就交由各位廣大的網友來替我做決定吧!

    在此也感謝意見區高手所給予的意見喔,小弟真的是覺得有你們這些熱心又專業的高手來為我解答 真的是非常榮幸.

  • 9 years ago

    可以參考一下這篇歐

    http://www.wrh.noaa.gov/wrh/metar_decode_key.pdf

    btw BK不是broken...

  • Anonymous
    9 years ago

    根據 http://www.aeromet.org.tw/chinese/aeromet/aw006/06...

    BR是指靄 Mist(能見度至少為1000 公尺但不超過5000 公尺), 與FG 霧 Fog(能見度低於1000 公尺)同屬於水象視障.

    根據 http://www.lib.ncu.edu.tw/~hong/atmhmpg/clouds/ahe...

    SCT就是疏雲(Scattered ).

    A2980是指高度表撥定值為29.80英吋水銀柱. 前方的Q1009也是高度表撥定值, 但不是英制, 而是SI制, 代表1009百帕(hPa).

    最後的L代表這項ATIS報的代表字母是L, 駕駛員會以Information Lima向塔台報告, 若有更新的ATIS內容, 例如M, 塔台會告知駕駛員重聽ATIS報.

    有關雲量的用字, 請參考http://www.lib.ncu.edu.tw/~hong/atmhmpg/clouds/ahe...

    2011-06-30 13:35:07 補充:

    Q1009不是1009mm汞柱.

    29.80英吋水銀柱換算成毫米汞柱: 29.80*25.4=756.92mm汞柱.

    Q1009是國際標準SI制, 單位是hPa(百帕).

    Source(s): 航空氣象學
  • How do you think about the answers? You can sign in to vote the answer.
  • 9 years ago

    SPECI RCTP 281436Z 11006KT 5000 『BR』 FEW010 『SCT』060 BKN130 26/23 Q1009『(A2980)(L)=』

    BR-- Broken

    SCT-- Scattered

    A2980 -- Altimeter 29.80

    L-- Lima   

    Source(s): ~self~
Still have questions? Get your answers by asking now.